sensor_id;sensor_type;location;lat;lon;timestamp;temperature;humidity
14049;DHT22;7099;53.922;10.728;2023-10-31T00:02:54;12.30;99.90
14049;DHT22;7099;53.922;10.728;2023-10-31T00:07:00;12.20;99.90
14049;DHT22;7099;53.922;10.728;2023-10-31T00:11:05;12.30;99.90
14049;DHT22;7099;53.922;10.728;2023-10-31T00:15:11;12.30;99.90
14049;DHT22;7099;53.922;10.728;2023-10-31T00:19:17;12.30;99.90
14049;DHT22;7099;53.922;10.728;2023-10-31T00:23:22;12.30;99.90
14049;DHT22;7099;53.922;10.728;2023-10-31T00:27:28;12.30;99.90
14049;DHT22;7099;53.922;10.728;2023-10-31T00:31:34;12.30;99.90
14049;DHT22;7099;53.922;10.728;2023-10-31T00:35:40;12.20;99.90
14049;DHT22;7099;53.922;10.728;2023-10-31T00:39:45;12.30;99.90
14049;DHT22;7099;53.922;10.728;2023-10-31T00:43:51;12.30;99.90
14049;DHT22;7099;53.922;10.728;2023-10-31T00:47:57;12.30;99.90
14049;DHT22;7099;53.922;10.728;2023-10-31T00:52:03;12.30;99.90
14049;DHT22;7099;53.922;10.728;2023-10-31T00:56:09;12.20;99.90
14049;DHT22;7099;53.922;10.728;2023-10-31T01:00:15;12.20;99.90
14049;DHT22;7099;53.922;10.728;2023-10-31T01:04:21;12.20;99.90
14049;DHT22;7099;53.922;10.728;2023-10-31T01:08:26;12.20;99.90
14049;DHT22;7099;53.922;10.728;2023-10-31T01:12:32;12.20;99.90
14049;DHT22;7099;53.922;10.728;2023-10-31T01:16:39;12.20;99.90
14049;DHT22;7099;53.922;10.728;2023-10-31T01:20:45;12.30;99.90
14049;DHT22;7099;53.922;10.728;2023-10-31T01:24:50;12.20;99.90
14049;DHT22;7099;53.922;10.728;2023-10-31T01:28:56;12.30;99.90
14049;DHT22;7099;53.922;10.728;2023-10-31T01:33:01;12.30;99.90
14049;DHT22;7099;53.922;10.728;2023-10-31T01:37:07;12.30;99.90
14049;DHT22;7099;53.922;10.728;2023-10-31T01:41:13;12.30;99.90
14049;DHT22;7099;53.922;10.728;2023-10-31T01:45:18;12.20;99.90
14049;DHT22;7099;53.922;10.728;2023-10-31T01:49:24;12.20;99.90
14049;DHT22;7099;53.922;10.728;2023-10-31T01:53:32;12.20;99.90
14049;DHT22;7099;53.922;10.728;2023-10-31T01:57:44;12.20;99.90
14049;DHT22;7099;53.922;10.728;2023-10-31T02:01:51;12.20;99.90
14049;DHT22;7099;53.922;10.728;2023-10-31T02:05:57;12.10;99.90
14049;DHT22;7099;53.922;10.728;2023-10-31T02:10:02;12.20;99.90
14049;DHT22;7099;53.922;10.728;2023-10-31T02:14:08;12.20;99.90
14049;DHT22;7099;53.922;10.728;2023-10-31T02:18:14;12.10;99.90
14049;DHT22;7099;53.922;10.728;2023-10-31T02:22:19;12.10;99.90
14049;DHT22;7099;53.922;10.728;2023-10-31T02:26:33;12.10;99.90
14049;DHT22;7099;53.922;10.728;2023-10-31T02:30:39;12.10;99.90
14049;DHT22;7099;53.922;10.728;2023-10-31T02:34:45;12.10;99.90
14049;DHT22;7099;53.922;10.728;2023-10-31T02:38:51;12.10;99.90
14049;DHT22;7099;53.922;10.728;2023-10-31T02:42:57;12.10;99.90
14049;DHT22;7099;53.922;10.728;2023-10-31T02:47:02;12.10;99.90
14049;DHT22;7099;53.922;10.728;2023-10-31T02:51:08;12.10;99.90
14049;DHT22;7099;53.922;10.728;2023-10-31T02:55:14;12.10;99.90
14049;DHT22;7099;53.922;10.728;2023-10-31T02:59:19;12.10;99.90
14049;DHT22;7099;53.922;10.728;2023-10-31T03:03:25;12.10;99.90
14049;DHT22;7099;53.922;10.728;2023-10-31T03:07:31;12.10;99.90
14049;DHT22;7099;53.922;10.728;2023-10-31T03:11:36;12.10;99.90
14049;DHT22;7099;53.922;10.728;2023-10-31T03:15:42;12.10;99.90
14049;DHT22;7099;53.922;10.728;2023-10-31T03:19:48;12.10;99.90
14049;DHT22;7099;53.922;10.728;2023-10-31T03:23:54;12.10;99.90
14049;DHT22;7099;53.922;10.728;2023-10-31T03:28:01;12.10;99.90
14049;DHT22;7099;53.922;10.728;2023-10-31T03:32:07;12.10;99.90
14049;DHT22;7099;53.922;10.728;2023-10-31T03:36:13;12.10;99.90
14049;DHT22;7099;53.922;10.728;2023-10-31T03:40:18;12.10;99.90
14049;DHT22;7099;53.922;10.728;2023-10-31T03:44:24;12.10;99.90
14049;DHT22;7099;53.922;10.728;2023-10-31T03:48:29;12.20;99.90
14049;DHT22;7099;53.922;10.728;2023-10-31T03:52:35;12.20;99.90
14049;DHT22;7099;53.922;10.728;2023-10-31T03:56:42;12.20;99.90
14049;DHT22;7099;53.922;10.728;2023-10-31T04:00:48;12.20;99.90
14049;DHT22;7099;53.922;10.728;2023-10-31T04:04:53;12.20;99.90
14049;DHT22;7099;53.922;10.728;2023-10-31T04:08:59;12.20;99.90
14049;DHT22;7099;53.922;10.728;2023-10-31T04:13:05;12.20;99.90
14049;DHT22;7099;53.922;10.728;2023-10-31T04:17:10;12.20;99.90
14049;DHT22;7099;53.922;10.728;2023-10-31T04:21:16;12.20;99.90
14049;DHT22;7099;53.922;10.728;2023-10-31T04:25:22;12.20;99.90
14049;DHT22;7099;53.922;10.728;2023-10-31T04:29:27;12.20;99.90
14049;DHT22;7099;53.922;10.728;2023-10-31T04:33:33;12.20;99.90
14049;DHT22;7099;53.922;10.728;2023-10-31T04:37:38;12.30;99.90
14049;DHT22;7099;53.922;10.728;2023-10-31T04:41:44;12.20;99.90
14049;DHT22;7099;53.922;10.728;2023-10-31T04:45:49;12.30;99.90
14049;DHT22;7099;53.922;10.728;2023-10-31T04:49:55;12.30;99.90
14049;DHT22;7099;53.922;10.728;2023-10-31T04:54:01;12.30;99.90
14049;DHT22;7099;53.922;10.728;2023-10-31T04:58:06;12.30;99.90
14049;DHT22;7099;53.922;10.728;2023-10-31T05:02:12;12.30;99.90
14049;DHT22;7099;53.922;10.728;2023-10-31T05:06:21;12.40;99.90
14049;DHT22;7099;53.922;10.728;2023-10-31T05:10:27;12.40;99.90
14049;DHT22;7099;53.922;10.728;2023-10-31T05:14:32;12.40;99.90
14049;DHT22;7099;53.922;10.728;2023-10-31T05:18:38;12.40;99.90
14049;DHT22;7099;53.922;10.728;2023-10-31T05:22:44;12.40;99.90
14049;DHT22;7099;53.922;10.728;2023-10-31T05:26:49;12.40;99.90
14049;DHT22;7099;53.922;10.728;2023-10-31T05:30:55;12.40;99.90
14049;DHT22;7099;53.922;10.728;2023-10-31T05:35:01;12.50;99.90
14049;DHT22;7099;53.922;10.728;2023-10-31T05:39:07;12.50;99.90
14049;DHT22;7099;53.922;10.728;2023-10-31T05:43:13;12.50;99.90
14049;DHT22;7099;53.922;10.728;2023-10-31T05:47:19;12.50;99.90
14049;DHT22;7099;53.922;10.728;2023-10-31T05:51:24;12.50;99.90
14049;DHT22;7099;53.922;10.728;2023-10-31T05:55:31;12.50;99.90
14049;DHT22;7099;53.922;10.728;2023-10-31T05:59:36;12.50;99.90
14049;DHT22;7099;53.922;10.728;2023-10-31T06:03:43;12.50;99.90
14049;DHT22;7099;53.922;10.728;2023-10-31T06:07:49;12.60;99.90
14049;DHT22;7099;53.922;10.728;2023-10-31T06:11:55;12.60;99.90
14049;DHT22;7099;53.922;10.728;2023-10-31T06:16:01;12.70;99.90
14049;DHT22;7099;53.922;10.728;2023-10-31T06:20:08;12.70;99.90
14049;DHT22;7099;53.922;10.728;2023-10-31T06:24:14;12.70;99.90
14049;DHT22;7099;53.922;10.728;2023-10-31T06:28:19;12.70;99.90
14049;DHT22;7099;53.922;10.728;2023-10-31T06:32:25;12.70;99.90
14049;DHT22;7099;53.922;10.728;2023-10-31T06:36:31;12.70;99.90
14049;DHT22;7099;53.922;10.728;2023-10-31T06:40:36;12.70;99.90
14049;DHT22;7099;53.922;10.728;2023-10-31T06:44:42;12.70;99.90
14049;DHT22;7099;53.922;10.728;2023-10-31T06:48:47;12.70;99.90
14049;DHT22;7099;53.922;10.728;2023-10-31T06:52:53;12.80;99.90
14049;DHT22;7099;53.922;10.728;2023-10-31T06:56:59;12.80;99.90
14049;DHT22;7099;53.922;10.728;2023-10-31T07:01:06;12.80;99.90
14049;DHT22;7099;53.922;10.728;2023-10-31T07:05:12;12.80;99.90
14049;DHT22;7099;53.922;10.728;2023-10-31T07:09:17;12.90;99.90
14049;DHT22;7099;53.922;10.728;2023-10-31T07:13:23;12.90;99.90
14049;DHT22;7099;53.922;10.728;2023-10-31T07:17:28;12.90;99.90
14049;DHT22;7099;53.922;10.728;2023-10-31T07:21:34;12.90;99.90
14049;DHT22;7099;53.922;10.728;2023-10-31T07:25:40;12.90;99.90
14049;DHT22;7099;53.922;10.728;2023-10-31T07:29:46;13.00;99.90
14049;DHT22;7099;53.922;10.728;2023-10-31T07:33:51;13.00;99.90
14049;DHT22;7099;53.922;10.728;2023-10-31T07:37:57;13.00;99.90
14049;DHT22;7099;53.922;10.728;2023-10-31T07:42:03;13.00;99.90
14049;DHT22;7099;53.922;10.728;2023-10-31T07:46:08;13.10;99.90
14049;DHT22;7099;53.922;10.728;2023-10-31T07:50:14;13.10;99.90
14049;DHT22;7099;53.922;10.728;2023-10-31T07:54:20;13.10;99.90
14049;DHT22;7099;53.922;10.728;2023-10-31T07:58:25;13.20;99.90
14049;DHT22;7099;53.922;10.728;2023-10-31T08:02:31;13.20;99.90
14049;DHT22;7099;53.922;10.728;2023-10-31T08:06:38;13.20;99.90
14049;DHT22;7099;53.922;10.728;2023-10-31T08:10:51;13.30;99.90
14049;DHT22;7099;53.922;10.728;2023-10-31T08:14:57;13.30;99.90
14049;DHT22;7099;53.922;10.728;2023-10-31T08:19:06;13.30;99.90
14049;DHT22;7099;53.922;10.728;2023-10-31T08:23:11;13.40;99.90
14049;DHT22;7099;53.922;10.728;2023-10-31T08:27:20;13.40;99.90
14049;DHT22;7099;53.922;10.728;2023-10-31T08:31:26;13.50;99.90
14049;DHT22;7099;53.922;10.728;2023-10-31T08:35:34;13.60;99.90
14049;DHT22;7099;53.922;10.728;2023-10-31T08:39:40;13.60;99.90
14049;DHT22;7099;53.922;10.728;2023-10-31T08:43:46;13.60;99.90
14049;DHT22;7099;53.922;10.728;2023-10-31T08:47:52;13.70;99.90
14049;DHT22;7099;53.922;10.728;2023-10-31T08:52:00;13.80;99.90
14049;DHT22;7099;53.922;10.728;2023-10-31T08:56:07;13.80;99.90
14049;DHT22;7099;53.922;10.728;2023-10-31T09:00:15;13.90;99.90
14049;DHT22;7099;53.922;10.728;2023-10-31T09:04:20;13.80;99.90
14049;DHT22;7099;53.922;10.728;2023-10-31T09:08:26;13.90;99.90
14049;DHT22;7099;53.922;10.728;2023-10-31T09:12:32;14.00;99.90
14049;DHT22;7099;53.922;10.728;2023-10-31T09:16:39;14.00;99.90
14049;DHT22;7099;53.922;10.728;2023-10-31T09:20:45;14.00;99.90
14049;DHT22;7099;53.922;10.728;2023-10-31T09:24:52;14.10;99.90
14049;DHT22;7099;53.922;10.728;2023-10-31T09:28:57;14.10;99.90
14049;DHT22;7099;53.922;10.728;2023-10-31T09:33:07;14.30;99.90
14049;DHT22;7099;53.922;10.728;2023-10-31T09:37:17;14.30;99.90
14049;DHT22;7099;53.922;10.728;2023-10-31T09:41:28;14.30;99.90
14049;DHT22;7099;53.922;10.728;2023-10-31T09:45:34;14.30;99.90
14049;DHT22;7099;53.922;10.728;2023-10-31T09:49:42;14.20;99.90
14049;DHT22;7099;53.922;10.728;2023-10-31T09:53:48;14.10;99.90
14049;DHT22;7099;53.922;10.728;2023-10-31T09:57:58;14.10;99.90
14049;DHT22;7099;53.922;10.728;2023-10-31T10:02:04;14.10;99.90
14049;DHT22;7099;53.922;10.728;2023-10-31T10:06:10;14.00;99.90
14049;DHT22;7099;53.922;10.728;2023-10-31T10:10:22;13.90;99.90
14049;DHT22;7099;53.922;10.728;2023-10-31T10:14:28;13.80;99.90
14049;DHT22;7099;53.922;10.728;2023-10-31T10:18:39;13.70;99.90
14049;DHT22;7099;53.922;10.728;2023-10-31T10:22:45;13.60;99.90
14049;DHT22;7099;53.922;10.728;2023-10-31T10:26:52;13.70;99.90
14049;DHT22;7099;53.922;10.728;2023-10-31T10:30:59;13.60;99.90
14049;DHT22;7099;53.922;10.728;2023-10-31T10:35:07;13.60;99.90
14049;DHT22;7099;53.922;10.728;2023-10-31T10:39:20;13.50;99.90
14049;DHT22;7099;53.922;10.728;2023-10-31T10:43:34;13.40;99.90
14049;DHT22;7099;53.922;10.728;2023-10-31T10:47:47;13.40;99.90
14049;DHT22;7099;53.922;10.728;2023-10-31T10:52:20;13.40;99.90
14049;DHT22;7099;53.922;10.728;2023-10-31T10:56:37;13.30;99.90
14049;DHT22;7099;53.922;10.728;2023-10-31T11:00:44;13.20;99.90
14049;DHT22;7099;53.922;10.728;2023-10-31T11:04:51;12.90;99.90
14049;DHT22;7099;53.922;10.728;2023-10-31T11:08:57;12.70;99.90
14049;DHT22;7099;53.922;10.728;2023-10-31T11:13:03;12.40;99.90
14049;DHT22;7099;53.922;10.728;2023-10-31T11:17:26;12.20;99.90
14049;DHT22;7099;53.922;10.728;2023-10-31T11:21:34;12.00;99.50
14049;DHT22;7099;53.922;10.728;2023-10-31T11:25:44;11.80;99.70
14049;DHT22;7099;53.922;10.728;2023-10-31T11:29:55;11.70;99.80
14049;DHT22;7099;53.922;10.728;2023-10-31T11:34:01;11.50;99.90
14049;DHT22;7099;53.922;10.728;2023-10-31T11:38:09;11.40;99.80
14049;DHT22;7099;53.922;10.728;2023-10-31T11:42:17;11.30;99.80
14049;DHT22;7099;53.922;10.728;2023-10-31T11:46:25;11.20;99.90
14049;DHT22;7099;53.922;10.728;2023-10-31T11:50:32;11.10;99.90
14049;DHT22;7099;53.922;10.728;2023-10-31T11:54:38;11.00;99.70
14049;DHT22;7099;53.922;10.728;2023-10-31T11:58:44;10.90;99.90
14049;DHT22;7099;53.922;10.728;2023-10-31T12:03:02;10.80;99.60
14049;DHT22;7099;53.922;10.728;2023-10-31T12:07:08;10.80;99.60
14049;DHT22;7099;53.922;10.728;2023-10-31T12:11:16;10.60;99.70
14049;DHT22;7099;53.922;10.728;2023-10-31T12:15:21;10.60;99.90
14049;DHT22;7099;53.922;10.728;2023-10-31T12:19:27;10.60;99.80
14049;DHT22;7099;53.922;10.728;2023-10-31T12:23:34;10.50;99.90
14049;DHT22;7099;53.922;10.728;2023-10-31T12:27:48;10.50;99.90
14049;DHT22;7099;53.922;10.728;2023-10-31T12:31:55;10.40;99.90
14049;DHT22;7099;53.922;10.728;2023-10-31T12:36:03;10.40;99.90
14049;DHT22;7099;53.922;10.728;2023-10-31T12:40:10;10.30;99.80
14049;DHT22;7099;53.922;10.728;2023-10-31T12:44:24;10.30;99.90
14049;DHT22;7099;53.922;10.728;2023-10-31T12:48:32;10.30;99.80
14049;DHT22;7099;53.922;10.728;2023-10-31T12:52:51;10.20;99.90
14049;DHT22;7099;53.922;10.728;2023-10-31T12:56:58;10.20;99.90
14049;DHT22;7099;53.922;10.728;2023-10-31T13:01:10;10.20;99.90
14049;DHT22;7099;53.922;10.728;2023-10-31T13:05:18;10.20;99.90
14049;DHT22;7099;53.922;10.728;2023-10-31T13:09:31;10.20;99.90
14049;DHT22;7099;53.922;10.728;2023-10-31T13:13:37;10.30;99.90
14049;DHT22;7099;53.922;10.728;2023-10-31T13:17:43;10.30;99.90
14049;DHT22;7099;53.922;10.728;2023-10-31T13:21:49;10.30;99.90
14049;DHT22;7099;53.922;10.728;2023-10-31T13:25:55;10.30;99.90
14049;DHT22;7099;53.922;10.728;2023-10-31T13:30:04;10.30;99.90
14049;DHT22;7099;53.922;10.728;2023-10-31T13:34:10;10.30;99.90
14049;DHT22;7099;53.922;10.728;2023-10-31T13:38:16;10.20;99.90
14049;DHT22;7099;53.922;10.728;2023-10-31T13:42:21;10.10;99.90
14049;DHT22;7099;53.922;10.728;2023-10-31T13:46:27;10.10;99.90
14049;DHT22;7099;53.922;10.728;2023-10-31T13:50:32;10.10;99.90
14049;DHT22;7099;53.922;10.728;2023-10-31T13:54:38;10.10;99.90
14049;DHT22;7099;53.922;10.728;2023-10-31T13:58:44;10.10;99.90
14049;DHT22;7099;53.922;10.728;2023-10-31T14:02:50;10.10;99.90
14049;DHT22;7099;53.922;10.728;2023-10-31T14:06:56;10.10;99.90
14049;DHT22;7099;53.922;10.728;2023-10-31T14:11:02;10.00;99.80
14049;DHT22;7099;53.922;10.728;2023-10-31T14:15:08;9.90;99.90
14049;DHT22;7099;53.922;10.728;2023-10-31T14:19:14;9.80;99.90
14049;DHT22;7099;53.922;10.728;2023-10-31T14:23:23;9.80;99.90
14049;DHT22;7099;53.922;10.728;2023-10-31T14:27:30;9.90;99.90
14049;DHT22;7099;53.922;10.728;2023-10-31T14:31:40;9.80;99.90
14049;DHT22;7099;53.922;10.728;2023-10-31T14:35:48;9.90;99.90
14049;DHT22;7099;53.922;10.728;2023-10-31T14:39:56;9.80;99.90
14049;DHT22;7099;53.922;10.728;2023-10-31T14:44:02;9.80;99.90
14049;DHT22;7099;53.922;10.728;2023-10-31T14:48:07;9.70;99.90
14049;DHT22;7099;53.922;10.728;2023-10-31T14:52:13;9.70;99.80
14049;DHT22;7099;53.922;10.728;2023-10-31T14:56:21;9.60;99.60
14049;DHT22;7099;53.922;10.728;2023-10-31T15:00:33;9.60;99.70
14049;DHT22;7099;53.922;10.728;2023-10-31T15:04:39;9.50;99.60
14049;DHT22;7099;53.922;10.728;2023-10-31T15:08:45;9.40;99.60
14049;DHT22;7099;53.922;10.728;2023-10-31T15:12:51;9.30;99.60
14049;DHT22;7099;53.922;10.728;2023-10-31T15:16:57;9.20;99.50
14049;DHT22;7099;53.922;10.728;2023-10-31T15:21:03;9.20;99.70
14049;DHT22;7099;53.922;10.728;2023-10-31T15:25:09;9.10;99.70
14049;DHT22;7099;53.922;10.728;2023-10-31T15:29:14;9.00;99.90
14049;DHT22;7099;53.922;10.728;2023-10-31T15:33:20;9.00;99.80
14049;DHT22;7099;53.922;10.728;2023-10-31T15:37:26;8.90;99.90
14049;DHT22;7099;53.922;10.728;2023-10-31T15:41:31;8.80;99.90
14049;DHT22;7099;53.922;10.728;2023-10-31T15:45:37;8.80;99.80
14049;DHT22;7099;53.922;10.728;2023-10-31T15:49:46;8.70;99.90
14049;DHT22;7099;53.922;10.728;2023-10-31T15:53:54;8.70;99.70
14049;DHT22;7099;53.922;10.728;2023-10-31T15:58:00;8.70;99.50
14049;DHT22;7099;53.922;10.728;2023-10-31T16:02:05;8.60;99.50
14049;DHT22;7099;53.922;10.728;2023-10-31T16:06:11;8.50;99.60
14049;DHT22;7099;53.922;10.728;2023-10-31T16:10:17;8.50;99.50
14049;DHT22;7099;53.922;10.728;2023-10-31T16:14:23;8.40;99.40
14049;DHT22;7099;53.922;10.728;2023-10-31T16:18:30;8.30;99.40
14049;DHT22;7099;53.922;10.728;2023-10-31T16:22:35;8.30;99.40
14049;DHT22;7099;53.922;10.728;2023-10-31T16:26:41;8.20;99.40
14049;DHT22;7099;53.922;10.728;2023-10-31T16:30:48;8.00;99.30
14049;DHT22;7099;53.922;10.728;2023-10-31T16:34:53;8.00;99.40
14049;DHT22;7099;53.922;10.728;2023-10-31T16:39:03;7.90;99.20
14049;DHT22;7099;53.922;10.728;2023-10-31T16:43:10;7.80;99.10
14049;DHT22;7099;53.922;10.728;2023-10-31T16:47:19;7.70;99.00
14049;DHT22;7099;53.922;10.728;2023-10-31T16:51:24;7.70;98.90
14049;DHT22;7099;53.922;10.728;2023-10-31T16:55:32;7.70;98.80
14049;DHT22;7099;53.922;10.728;2023-10-31T16:59:41;7.60;98.30
14049;DHT22;7099;53.922;10.728;2023-10-31T17:03:47;7.50;98.30
14049;DHT22;7099;53.922;10.728;2023-10-31T17:07:55;7.50;98.30
14049;DHT22;7099;53.922;10.728;2023-10-31T17:12:06;7.50;98.10
14049;DHT22;7099;53.922;10.728;2023-10-31T17:16:12;7.40;98.20
14049;DHT22;7099;53.922;10.728;2023-10-31T17:20:18;7.30;97.70
14049;DHT22;7099;53.922;10.728;2023-10-31T17:24:24;7.30;97.80
14049;DHT22;7099;53.922;10.728;2023-10-31T17:28:29;7.20;97.80
14049;DHT22;7099;53.922;10.728;2023-10-31T17:32:45;7.20;97.70
14049;DHT22;7099;53.922;10.728;2023-10-31T17:36:54;7.10;97.60
14049;DHT22;7099;53.922;10.728;2023-10-31T17:41:03;7.00;97.90
14049;DHT22;7099;53.922;10.728;2023-10-31T17:45:10;7.00;97.80
14049;DHT22;7099;53.922;10.728;2023-10-31T17:49:17;7.00;97.90
14049;DHT22;7099;53.922;10.728;2023-10-31T17:53:27;7.00;98.00
14049;DHT22;7099;53.922;10.728;2023-10-31T17:57:33;7.00;98.00
14049;DHT22;7099;53.922;10.728;2023-10-31T18:01:40;6.90;97.90
14049;DHT22;7099;53.922;10.728;2023-10-31T18:05:46;6.90;97.90
14049;DHT22;7099;53.922;10.728;2023-10-31T18:09:52;6.80;97.80
14049;DHT22;7099;53.922;10.728;2023-10-31T18:14:02;6.70;98.00
14049;DHT22;7099;53.922;10.728;2023-10-31T18:18:12;6.70;98.00
14049;DHT22;7099;53.922;10.728;2023-10-31T18:22:21;6.60;98.00
14049;DHT22;7099;53.922;10.728;2023-10-31T18:26:30;6.60;98.00
14049;DHT22;7099;53.922;10.728;2023-10-31T18:30:36;6.60;98.10
14049;DHT22;7099;53.922;10.728;2023-10-31T18:34:43;6.50;98.00
14049;DHT22;7099;53.922;10.728;2023-10-31T18:38:49;6.40;98.00
14049;DHT22;7099;53.922;10.728;2023-10-31T18:42:59;6.50;98.00
14049;DHT22;7099;53.922;10.728;2023-10-31T18:47:05;6.40;98.00
14049;DHT22;7099;53.922;10.728;2023-10-31T18:51:10;6.40;97.90
14049;DHT22;7099;53.922;10.728;2023-10-31T18:55:20;6.30;97.90
14049;DHT22;7099;53.922;10.728;2023-10-31T18:59:28;6.20;97.90
14049;DHT22;7099;53.922;10.728;2023-10-31T19:03:40;6.10;98.00
14049;DHT22;7099;53.922;10.728;2023-10-31T19:07:45;6.10;98.00
14049;DHT22;7099;53.922;10.728;2023-10-31T19:11:51;6.10;98.00
14049;DHT22;7099;53.922;10.728;2023-10-31T19:15:56;6.00;98.10
14049;DHT22;7099;53.922;10.728;2023-10-31T19:20:02;6.00;98.00
14049;DHT22;7099;53.922;10.728;2023-10-31T19:24:08;5.90;98.00
14049;DHT22;7099;53.922;10.728;2023-10-31T19:28:13;5.80;98.00
14049;DHT22;7099;53.922;10.728;2023-10-31T19:32:19;5.80;98.10
14049;DHT22;7099;53.922;10.728;2023-10-31T19:36:25;5.70;98.10
14049;DHT22;7099;53.922;10.728;2023-10-31T19:40:31;5.60;98.10
14049;DHT22;7099;53.922;10.728;2023-10-31T19:44:39;5.60;98.10
14049;DHT22;7099;53.922;10.728;2023-10-31T19:48:45;5.50;98.20
14049;DHT22;7099;53.922;10.728;2023-10-31T19:52:51;5.50;98.20
14049;DHT22;7099;53.922;10.728;2023-10-31T19:56:56;5.40;98.20
14049;DHT22;7099;53.922;10.728;2023-10-31T20:01:02;5.30;98.30
14049;DHT22;7099;53.922;10.728;2023-10-31T20:05:08;5.30;98.30
14049;DHT22;7099;53.922;10.728;2023-10-31T20:09:13;5.30;98.30
14049;DHT22;7099;53.922;10.728;2023-10-31T20:13:21;5.30;98.30
14049;DHT22;7099;53.922;10.728;2023-10-31T20:17:28;5.20;98.30
14049;DHT22;7099;53.922;10.728;2023-10-31T20:21:35;5.20;98.20
14049;DHT22;7099;53.922;10.728;2023-10-31T20:25:41;5.10;98.20
14049;DHT22;7099;53.922;10.728;2023-10-31T20:29:46;5.00;98.20
14049;DHT22;7099;53.922;10.728;2023-10-31T20:33:52;5.00;98.20
14049;DHT22;7099;53.922;10.728;2023-10-31T20:38:00;4.90;98.30
14049;DHT22;7099;53.922;10.728;2023-10-31T20:42:06;4.90;98.40
14049;DHT22;7099;53.922;10.728;2023-10-31T20:46:11;4.90;98.30
14049;DHT22;7099;53.922;10.728;2023-10-31T20:50:18;4.80;98.40
14049;DHT22;7099;53.922;10.728;2023-10-31T20:54:24;4.80;98.40
14049;DHT22;7099;53.922;10.728;2023-10-31T20:58:29;4.80;98.50
14049;DHT22;7099;53.922;10.728;2023-10-31T21:02:35;4.80;98.60
14049;DHT22;7099;53.922;10.728;2023-10-31T21:06:41;4.70;98.50
14049;DHT22;7099;53.922;10.728;2023-10-31T21:10:46;4.70;98.50
14049;DHT22;7099;53.922;10.728;2023-10-31T21:14:52;4.70;98.50
14049;DHT22;7099;53.922;10.728;2023-10-31T21:18:58;4.70;98.60
14049;DHT22;7099;53.922;10.728;2023-10-31T21:23:03;4.70;98.60
14049;DHT22;7099;53.922;10.728;2023-10-31T21:27:09;4.60;98.60
14049;DHT22;7099;53.922;10.728;2023-10-31T21:31:15;4.60;98.70
14049;DHT22;7099;53.922;10.728;2023-10-31T21:35:21;4.60;98.60
14049;DHT22;7099;53.922;10.728;2023-10-31T21:39:27;4.60;98.70
14049;DHT22;7099;53.922;10.728;2023-10-31T21:43:33;4.60;98.70
14049;DHT22;7099;53.922;10.728;2023-10-31T21:47:39;4.60;98.70
14049;DHT22;7099;53.922;10.728;2023-10-31T21:51:45;4.60;98.60
14049;DHT22;7099;53.922;10.728;2023-10-31T21:55:51;4.60;98.60
14049;DHT22;7099;53.922;10.728;2023-10-31T21:59:56;4.50;98.70
14049;DHT22;7099;53.922;10.728;2023-10-31T22:04:03;4.50;98.60
14049;DHT22;7099;53.922;10.728;2023-10-31T22:08:09;4.50;98.70
14049;DHT22;7099;53.922;10.728;2023-10-31T22:12:14;4.50;98.70
14049;DHT22;7099;53.922;10.728;2023-10-31T22:16:20;4.50;98.80
14049;DHT22;7099;53.922;10.728;2023-10-31T22:20:25;4.50;98.80
14049;DHT22;7099;53.922;10.728;2023-10-31T22:24:31;4.50;98.90
14049;DHT22;7099;53.922;10.728;2023-10-31T22:28:37;4.50;98.80
14049;DHT22;7099;53.922;10.728;2023-10-31T22:32:42;4.50;98.80
14049;DHT22;7099;53.922;10.728;2023-10-31T22:36:48;4.50;98.90
14049;DHT22;7099;53.922;10.728;2023-10-31T22:40:54;4.50;98.90
14049;DHT22;7099;53.922;10.728;2023-10-31T22:44:59;4.50;99.00
14049;DHT22;7099;53.922;10.728;2023-10-31T22:49:05;4.50;98.90
14049;DHT22;7099;53.922;10.728;2023-10-31T22:53:13;4.50;99.00
14049;DHT22;7099;53.922;10.728;2023-10-31T22:57:21;4.50;98.90
14049;DHT22;7099;53.922;10.728;2023-10-31T23:01:26;4.40;98.80
14049;DHT22;7099;53.922;10.728;2023-10-31T23:05:32;4.40;98.70
14049;DHT22;7099;53.922;10.728;2023-10-31T23:09:38;4.30;98.90
14049;DHT22;7099;53.922;10.728;2023-10-31T23:13:44;4.30;98.80
14049;DHT22;7099;53.922;10.728;2023-10-31T23:17:50;4.20;98.70
14049;DHT22;7099;53.922;10.728;2023-10-31T23:21:58;4.20;98.80
14049;DHT22;7099;53.922;10.728;2023-10-31T23:26:04;4.20;98.70
14049;DHT22;7099;53.922;10.728;2023-10-31T23:30:10;4.20;98.70
14049;DHT22;7099;53.922;10.728;2023-10-31T23:34:16;4.20;98.70
14049;DHT22;7099;53.922;10.728;2023-10-31T23:38:22;4.10;98.80
14049;DHT22;7099;53.922;10.728;2023-10-31T23:42:27;4.10;98.70
14049;DHT22;7099;53.922;10.728;2023-10-31T23:46:33;4.10;98.70
14049;DHT22;7099;53.922;10.728;2023-10-31T23:50:38;4.00;98.60
14049;DHT22;7099;53.922;10.728;2023-10-31T23:54:44;4.00;98.60
14049;DHT22;7099;53.922;10.728;2023-10-31T23:58:50;3.90;98.50
